X9S YSHL-YSHL
Flight info
| Callsign | X9S |
|---|---|
| Flight time | 1h 50m |
| Altitude | 3000 |
| Route | SECF JIBN CUL SYHD HBB SYHD CUL JIBN SECF |
| Aircraft | UH1/L-SDFGR/S |
Departure
| Time | 2026-04-25 00:52 |
|---|---|
| Airport | Shellharbour Airport (YSHL) |
Arrival
| Time | 2026-04-25 02:42 |
|---|---|
| Airport | Shellharbour Airport (YSHL) |
| Time | Latitude | Longitude | Altitude | Speed | Heading |
|---|---|---|---|---|---|
| 2026-04-25 00:36 | -34.56113 | 150.78951 | 40 ft | 0 kts | 43° |
| 2026-04-25 00:43 | -34.56113 | 150.78953 | 46 ft | 2 kts | 32° |
| 2026-04-25 00:44 | -34.56100 | 150.78955 | 45 ft | 3 kts | 299° |
| 2026-04-25 00:44 | -34.56094 | 150.78944 | 47 ft | 4 kts | 275° |
| 2026-04-25 00:44 | -34.56091 | 150.78935 | 48 ft | 4 kts | 270° |
| 2026-04-25 00:44 | -34.56119 | 150.78897 | 54 ft | 7 kts | 216° |
| 2026-04-25 00:45 | -34.56156 | 150.78869 | 51 ft | 5 kts | 215° |
| 2026-04-25 00:45 | -34.56161 | 150.78866 | 50 ft | 3 kts | 216° |
| 2026-04-25 00:47 | -34.56228 | 150.78815 | 105 ft | 33 kts | 206° |
| 2026-04-25 00:47 | -34.56622 | 150.78848 | 201 ft | 77 kts | 168° |
| 2026-04-25 00:47 | -34.57032 | 150.79226 | 467 ft | 82 kts | 107° |
| 2026-04-25 00:48 | -34.56991 | 150.79938 | 600 ft | 94 kts | 65° |
| 2026-04-25 00:48 | -34.56691 | 150.80694 | 620 ft | 103 kts | 58° |
| 2026-04-25 00:48 | -34.56373 | 150.81485 | 608 ft | 106 kts | 60° |
| 2026-04-25 00:48 | -34.56088 | 150.82314 | 591 ft | 106 kts | 63° |
| 2026-04-25 00:49 | -34.55795 | 150.83126 | 588 ft | 106 kts | 62° |
| 2026-04-25 00:49 | -34.55497 | 150.83933 | 610 ft | 104 kts | 62° |
| 2026-04-25 00:49 | -34.55198 | 150.84749 | 616 ft | 108 kts | 60° |
| 2026-04-25 00:49 | -34.54888 | 150.85579 | 614 ft | 109 kts | 60° |
| 2026-04-25 00:50 | -34.54627 | 150.86442 | 595 ft | 110 kts | 75° |
| 2026-04-25 00:50 | -34.54508 | 150.87373 | 565 ft | 109 kts | 50° |
| 2026-04-25 00:50 | -34.54373 | 150.87537 | 576 ft | 107 kts | 32° |
| 2026-04-25 00:50 | -34.54252 | 150.87620 | 584 ft | 105 kts | 19° |
| 2026-04-25 00:51 | -34.54114 | 150.87675 | 597 ft | 103 kts | 13° |
| 2026-04-25 00:52 | -34.53436 | 150.88001 | 592 ft | 104 kts | 25° |
| 2026-04-25 00:52 | -34.52899 | 150.88520 | 732 ft | 99 kts | 44° |
| 2026-04-25 00:52 | -34.52475 | 150.89182 | 819 ft | 103 kts | 50° |
| 2026-04-25 00:52 | -34.52056 | 150.89903 | 851 ft | 104 kts | 48° |
| 2026-04-25 00:53 | -34.51636 | 150.90614 | 918 ft | 104 kts | 46° |
| 2026-04-25 00:53 | -34.51197 | 150.91300 | 991 ft | 101 kts | 45° |
| 2026-04-25 00:53 | -34.50678 | 150.91848 | 1044 ft | 101 kts | 31° |
| 2026-04-25 00:53 | -34.50082 | 150.92308 | 1020 ft | 104 kts | 27° |
| 2026-04-25 00:54 | -34.49392 | 150.92598 | 989 ft | 107 kts | 4° |
| 2026-04-25 00:54 | -34.48626 | 150.92607 | 897 ft | 109 kts | 354° |
| 2026-04-25 00:54 | -34.48408 | 150.92593 | 902 ft | 108 kts | 354° |
| 2026-04-25 00:57 | -34.48392 | 150.92592 | 901 ft | 108 kts | 354° |
| 2026-04-25 00:58 | -34.47635 | 150.92534 | 851 ft | 109 kts | 355° |
| 2026-04-25 00:58 | -34.46886 | 150.92560 | 877 ft | 107 kts | 1° |
| 2026-04-25 00:58 | -34.46144 | 150.92630 | 904 ft | 106 kts | 5° |
| 2026-04-25 00:58 | -34.46061 | 150.92646 | 906 ft | 106 kts | 7° |
| 2026-04-25 00:59 | -34.45897 | 150.92679 | 901 ft | 108 kts | 6° |
| 2026-04-25 00:59 | -34.45152 | 150.92833 | 910 ft | 109 kts | 8° |
| 2026-04-25 01:00 | -34.44427 | 150.93049 | 915 ft | 107 kts | 11° |
| 2026-04-25 01:00 | -34.43706 | 150.93298 | 881 ft | 110 kts | 10° |
| 2026-04-25 01:00 | -34.42974 | 150.93518 | 915 ft | 106 kts | 10° |
| 2026-04-25 01:00 | -34.42241 | 150.93681 | 956 ft | 107 kts | 7° |
| 2026-04-25 01:01 | -34.41499 | 150.93840 | 993 ft | 109 kts | 7° |
| 2026-04-25 01:01 | -34.40750 | 150.94027 | 1003 ft | 109 kts | 7° |
| 2026-04-25 01:01 | -34.40006 | 150.94189 | 1021 ft | 108 kts | 8° |
| 2026-04-25 01:01 | -34.39261 | 150.94357 | 1023 ft | 108 kts | 6° |
| 2026-04-25 01:02 | -34.38507 | 150.94525 | 949 ft | 114 kts | 8° |
| 2026-04-25 01:02 | -34.37721 | 150.94713 | 897 ft | 112 kts | 7° |
| 2026-04-25 01:02 | -34.37195 | 150.94852 | 878 ft | 112 kts | 9° |
| 2026-04-25 01:04 | -34.36961 | 150.94921 | 863 ft | 112 kts | 9° |
| 2026-04-25 01:04 | -34.36218 | 150.95124 | 875 ft | 110 kts | 9° |
| 2026-04-25 01:05 | -34.35778 | 150.95256 | 855 ft | 111 kts | 10° |
| 2026-04-25 01:05 | -34.35039 | 150.95374 | 947 ft | 105 kts | 357° |
| 2026-04-25 01:05 | -34.34290 | 150.95385 | 953 ft | 109 kts | 0° |
| 2026-04-25 01:06 | -34.33537 | 150.95469 | 1016 ft | 108 kts | 3° |
| 2026-04-25 01:06 | -34.32790 | 150.95592 | 1054 ft | 108 kts | 5° |
| 2026-04-25 01:06 | -34.32029 | 150.95695 | 971 ft | 113 kts | 4° |
| 2026-04-25 01:06 | -34.31266 | 150.95706 | 1015 ft | 106 kts | 353° |
| 2026-04-25 01:07 | -34.30507 | 150.95623 | 960 ft | 113 kts | 348° |
| 2026-04-25 01:07 | -34.29713 | 150.95511 | 880 ft | 116 kts | 353° |
| 2026-04-25 01:07 | -34.28932 | 150.95481 | 692 ft | 108 kts | 2° |
| 2026-04-25 01:07 | -34.28287 | 150.95882 | 552 ft | 107 kts | 34° |
| 2026-04-25 01:08 | -34.27738 | 150.96486 | 485 ft | 107 kts | 34° |
| 2026-04-25 01:08 | -34.27185 | 150.97074 | 495 ft | 108 kts | 34° |
| 2026-04-25 01:08 | -34.26615 | 150.97675 | 548 ft | 106 kts | 33° |
| 2026-04-25 01:08 | -34.26033 | 150.98232 | 560 ft | 109 kts | 32° |
| 2026-04-25 01:09 | -34.25404 | 150.98763 | 555 ft | 110 kts | 26° |
| 2026-04-25 01:09 | -34.24738 | 150.99225 | 549 ft | 110 kts | 22° |
| 2026-04-25 01:09 | -34.24057 | 150.99674 | 517 ft | 114 kts | 23° |
| 2026-04-25 01:09 | -34.23388 | 151.00200 | 464 ft | 114 kts | 30° |
| 2026-04-25 01:10 | -34.23250 | 151.00324 | 456 ft | 115 kts | 31° |
| 2026-04-25 01:10 | -34.22784 | 151.00759 | 431 ft | 115 kts | 31° |
| 2026-04-25 01:11 | -34.22176 | 151.01337 | 460 ft | 109 kts | 32° |
| 2026-04-25 01:11 | -34.21612 | 151.01951 | 499 ft | 109 kts | 38° |
| 2026-04-25 01:11 | -34.21083 | 151.02611 | 536 ft | 107 kts | 48° |
| 2026-04-25 01:11 | -34.20640 | 151.03392 | 497 ft | 114 kts | 48° |
| 2026-04-25 01:12 | -34.20158 | 151.04151 | 521 ft | 113 kts | 44° |
| 2026-04-25 01:12 | -34.19637 | 151.04854 | 540 ft | 112 kts | 41° |
| 2026-04-25 01:12 | -34.19528 | 151.05000 | 530 ft | 114 kts | 42° |
| 2026-04-25 01:14 | -34.19073 | 151.05604 | 482 ft | 115 kts | 40° |
| 2026-04-25 01:14 | -34.18517 | 151.06301 | 477 ft | 115 kts | 37° |
| 2026-04-25 01:14 | -34.17963 | 151.06984 | 487 ft | 116 kts | 41° |
| 2026-04-25 01:15 | -34.17438 | 151.07733 | 479 ft | 118 kts | 46° |
| 2026-04-25 01:15 | -34.16939 | 151.08523 | 434 ft | 119 kts | 47° |
| 2026-04-25 01:15 | -34.16435 | 151.09328 | 428 ft | 121 kts | 49° |
| 2026-04-25 01:15 | -34.15960 | 151.10166 | 450 ft | 120 kts | 52° |
| 2026-04-25 01:16 | -34.15500 | 151.11027 | 468 ft | 123 kts | 52° |
| 2026-04-25 01:16 | -34.15007 | 151.11855 | 520 ft | 117 kts | 44° |
| 2026-04-25 01:16 | -34.14712 | 151.12272 | 523 ft | 115 kts | 43° |
| 2026-04-25 01:17 | -34.14515 | 151.12537 | 483 ft | 117 kts | 42° |
| 2026-04-25 01:17 | -34.14124 | 151.13009 | 439 ft | 116 kts | 37° |
| 2026-04-25 01:17 | -34.13352 | 151.13863 | 499 ft | 112 kts | 37° |
| 2026-04-25 01:17 | -34.12779 | 151.14495 | 554 ft | 112 kts | 36° |
| 2026-04-25 01:18 | -34.12164 | 151.15102 | 543 ft | 116 kts | 32° |
| 2026-04-25 01:18 | -34.11502 | 151.15641 | 521 ft | 117 kts | 27° |
| 2026-04-25 01:18 | -34.10807 | 151.16144 | 488 ft | 117 kts | 25° |
| 2026-04-25 01:18 | -34.10071 | 151.16604 | 410 ft | 116 kts | 20° |
| 2026-04-25 01:19 | -34.09351 | 151.17017 | 413 ft | 115 kts | 19° |
| 2026-04-25 01:19 | -34.08614 | 151.17404 | 406 ft | 115 kts | 9° |
| 2026-04-25 01:19 | -34.07848 | 151.17284 | 408 ft | 111 kts | 338° |
| 2026-04-25 01:19 | -34.07146 | 151.16912 | 288 ft | 110 kts | 324° |
| 2026-04-25 01:20 | -34.06512 | 151.16394 | 162 ft | 109 kts | 326° |
| 2026-04-25 01:20 | -34.05816 | 151.16047 | 155 ft | 109 kts | 339° |
| 2026-04-25 01:20 | -34.05067 | 151.16008 | 170 ft | 112 kts | 13° |
| 2026-04-25 01:20 | -34.04438 | 151.16544 | 183 ft | 115 kts | 42° |
| 2026-04-25 01:21 | -34.04012 | 151.17360 | 196 ft | 116 kts | 63° |
| 2026-04-25 01:21 | -34.03812 | 151.18300 | 203 ft | 118 kts | 81° |
| 2026-04-25 01:21 | -34.04096 | 151.19211 | 132 ft | 123 kts | 132° |
| 2026-04-25 01:21 | -34.04557 | 151.20012 | 249 ft | 115 kts | 101° |
| 2026-04-25 01:22 | -34.04481 | 151.20978 | 209 ft | 118 kts | 66° |
| 2026-04-25 01:22 | -34.04181 | 151.21898 | 217 ft | 118 kts | 59° |
| 2026-04-25 01:22 | -34.03846 | 151.22401 | 228 ft | 116 kts | 37° |
| 2026-04-25 01:22 | -34.02968 | 151.23119 | 229 ft | 116 kts | 28° |
| 2026-04-25 01:23 | -34.02291 | 151.23644 | 236 ft | 115 kts | 26° |
| 2026-04-25 01:23 | -34.01625 | 151.24206 | 211 ft | 117 kts | 31° |
| 2026-04-25 01:23 | -34.01513 | 151.24305 | 213 ft | 117 kts | 31° |
| 2026-04-25 01:24 | -34.01425 | 151.24382 | 221 ft | 116 kts | 30° |
| 2026-04-25 01:24 | -34.00559 | 151.25065 | 333 ft | 113 kts | 25° |
| 2026-04-25 01:24 | -34.00094 | 151.25390 | 328 ft | 115 kts | 25° |
| 2026-04-25 01:24 | -33.99421 | 151.25891 | 384 ft | 114 kts | 30° |
| 2026-04-25 01:25 | -33.98741 | 151.26401 | 416 ft | 115 kts | 22° |
| 2026-04-25 01:25 | -33.98016 | 151.26858 | 386 ft | 118 kts | 21° |
| 2026-04-25 01:25 | -33.97265 | 151.27188 | 409 ft | 115 kts | 8° |
| 2026-04-25 01:25 | -33.96475 | 151.27326 | 413 ft | 116 kts | 5° |
| 2026-04-25 01:26 | -33.95685 | 151.27499 | 403 ft | 116 kts | 6° |
| 2026-04-25 01:26 | -33.94876 | 151.27653 | 349 ft | 120 kts | 4° |
| 2026-04-25 01:26 | -33.94062 | 151.27821 | 310 ft | 118 kts | 8° |
| 2026-04-25 01:26 | -33.93277 | 151.28056 | 323 ft | 115 kts | 11° |
| 2026-04-25 01:27 | -33.92510 | 151.28351 | 326 ft | 116 kts | 14° |
| 2026-04-25 01:27 | -33.91746 | 151.28677 | 365 ft | 117 kts | 16° |
| 2026-04-25 01:27 | -33.90959 | 151.28931 | 396 ft | 114 kts | 6° |
| 2026-04-25 01:28 | -33.89422 | 151.29199 | 423 ft | 113 kts | 0° |
| 2026-04-25 01:28 | -33.88997 | 151.29240 | 416 ft | 114 kts | 360° |
| 2026-04-25 01:29 | -33.88563 | 151.29274 | 436 ft | 111 kts | 359° |
| 2026-04-25 01:29 | -33.87783 | 151.29322 | 448 ft | 112 kts | 357° |
| 2026-04-25 01:30 | -33.87000 | 151.29359 | 474 ft | 111 kts | 359° |
| 2026-04-25 01:30 | -33.86227 | 151.29398 | 517 ft | 112 kts | 358° |
| 2026-04-25 01:30 | -33.85446 | 151.29423 | 527 ft | 113 kts | 354° |
| 2026-04-25 01:30 | -33.84779 | 151.29410 | 569 ft | 111 kts | 354° |
| 2026-04-25 01:31 | -33.84021 | 151.29227 | 599 ft | 110 kts | 330° |
| 2026-04-25 01:31 | -33.83557 | 151.28560 | 653 ft | 110 kts | 281° |
| 2026-04-25 01:31 | -33.83732 | 151.27662 | 633 ft | 115 kts | 238° |
| 2026-04-25 01:31 | -33.84179 | 151.26868 | 625 ft | 115 kts | 233° |
| 2026-04-25 01:32 | -33.84689 | 151.26115 | 474 ft | 117 kts | 227° |
| 2026-04-25 01:32 | -33.85216 | 151.25350 | 340 ft | 122 kts | 237° |
| 2026-04-25 01:32 | -33.85402 | 151.24384 | 314 ft | 119 kts | 272° |
| 2026-04-25 01:32 | -33.85305 | 151.23410 | 323 ft | 117 kts | 277° |
| 2026-04-25 01:33 | -33.85234 | 151.22455 | 406 ft | 107 kts | 262° |
| 2026-04-25 01:33 | -33.85199 | 151.21734 | 507 ft | 72 kts | 291° |
| 2026-04-25 01:33 | -33.85345 | 151.21430 | 527 ft | 48 kts | 156° |
| 2026-04-25 01:33 | -33.85496 | 151.21622 | 303 ft | 14 kts | 124° |
| 2026-04-25 01:34 | -33.85566 | 151.21688 | 237 ft | 25 kts | 115° |
| 2026-04-25 01:34 | -33.85630 | 151.21972 | 299 ft | 71 kts | 75° |
| 2026-04-25 01:34 | -33.85595 | 151.22130 | 342 ft | 74 kts | 64° |
| 2026-04-25 01:35 | -33.85241 | 151.22392 | 430 ft | 60 kts | 308° |
| 2026-04-25 01:35 | -33.85363 | 151.21977 | 392 ft | 64 kts | 217° |
| 2026-04-25 01:35 | -33.85490 | 151.21494 | 317 ft | 67 kts | 285° |
| 2026-04-25 01:35 | -33.85235 | 151.21575 | 202 ft | 77 kts | 116° |
| 2026-04-25 01:36 | -33.85372 | 151.21807 | 173 ft | 82 kts | 127° |
| 2026-04-25 01:37 | -33.85491 | 151.22003 | 169 ft | 83 kts | 117° |
| 2026-04-25 01:38 | -33.85525 | 151.22620 | 251 ft | 74 kts | 44° |
| 2026-04-25 01:38 | -33.85130 | 151.22570 | 279 ft | 71 kts | 287° |
| 2026-04-25 01:38 | -33.85265 | 151.21972 | 227 ft | 78 kts | 261° |
| 2026-04-25 01:38 | -33.85214 | 151.21418 | 330 ft | 67 kts | 229° |
| 2026-04-25 01:39 | -33.85422 | 151.21372 | 308 ft | 79 kts | 154° |
| 2026-04-25 01:39 | -33.85589 | 151.21678 | 222 ft | 87 kts | 94° |
| 2026-04-25 01:39 | -33.85622 | 151.22400 | 200 ft | 86 kts | 85° |
| 2026-04-25 01:39 | -33.85642 | 151.23111 | 192 ft | 84 kts | 89° |
| 2026-04-25 01:40 | -33.85653 | 151.23813 | 175 ft | 82 kts | 75° |
| 2026-04-25 01:43 | -33.85619 | 151.24067 | 158 ft | 83 kts | 72° |
| 2026-04-25 01:43 | -33.85419 | 151.24706 | 151 ft | 79 kts | 49° |
| 2026-04-25 01:44 | -33.85084 | 151.25216 | 166 ft | 77 kts | 42° |
| 2026-04-25 01:44 | -33.84729 | 151.25699 | 179 ft | 77 kts | 40° |
| 2026-04-25 01:44 | -33.84542 | 151.25940 | 180 ft | 77 kts | 39° |
| 2026-04-25 01:44 | -33.84231 | 151.26312 | 225 ft | 75 kts | 37° |
| 2026-04-25 01:45 | -33.83951 | 151.26627 | 228 ft | 77 kts | 36° |
| 2026-04-25 01:46 | -33.83659 | 151.26977 | 241 ft | 78 kts | 41° |
| 2026-04-25 01:46 | -33.83408 | 151.27537 | 259 ft | 80 kts | 63° |
| 2026-04-25 01:46 | -33.83353 | 151.28190 | 303 ft | 79 kts | 103° |
| 2026-04-25 01:46 | -33.83802 | 151.28555 | 324 ft | 81 kts | 160° |
| 2026-04-25 01:47 | -33.84330 | 151.28718 | 392 ft | 80 kts | 167° |
| 2026-04-25 01:47 | -33.84894 | 151.28851 | 403 ft | 82 kts | 166° |
| 2026-04-25 01:47 | -33.85183 | 151.28923 | 396 ft | 84 kts | 161° |
| 2026-04-25 01:48 | -33.85412 | 151.28995 | 399 ft | 84 kts | 162° |
| 2026-04-25 01:48 | -33.85980 | 151.29140 | 413 ft | 82 kts | 167° |
| 2026-04-25 01:49 | -33.86562 | 151.29217 | 398 ft | 86 kts | 171° |
| 2026-04-25 01:49 | -33.87158 | 151.29252 | 410 ft | 84 kts | 175° |
| 2026-04-25 01:49 | -33.87744 | 151.29192 | 424 ft | 82 kts | 184° |
| 2026-04-25 01:49 | -33.88319 | 151.29144 | 447 ft | 83 kts | 180° |
| 2026-04-25 01:50 | -33.88906 | 151.29151 | 428 ft | 84 kts | 175° |
| 2026-04-25 01:50 | -33.89475 | 151.29145 | 431 ft | 85 kts | 179° |
| 2026-04-25 01:50 | -33.89526 | 151.29144 | 432 ft | 85 kts | 179° |
| 2026-04-25 01:51 | -33.89859 | 151.29121 | 377 ft | 89 kts | 182° |
| 2026-04-25 01:51 | -33.90012 | 151.29100 | 378 ft | 88 kts | 183° |
| 2026-04-25 01:52 | -33.90355 | 151.29024 | 385 ft | 86 kts | 190° |
| 2026-04-25 01:52 | -33.90943 | 151.28788 | 384 ft | 97 kts | 201° |
| 2026-04-25 01:52 | -33.91604 | 151.28449 | 400 ft | 109 kts | 201° |
| 2026-04-25 01:52 | -33.92358 | 151.28231 | 407 ft | 113 kts | 188° |
| 2026-04-25 01:53 | -33.93127 | 151.28052 | 422 ft | 112 kts | 191° |
| 2026-04-25 01:53 | -33.93895 | 151.27865 | 376 ft | 115 kts | 187° |
| 2026-04-25 01:53 | -33.94688 | 151.27742 | 324 ft | 114 kts | 191° |
| 2026-04-25 01:53 | -33.95442 | 151.27480 | 321 ft | 113 kts | 195° |
| 2026-04-25 01:54 | -33.96187 | 151.27160 | 319 ft | 114 kts | 200° |
| 2026-04-25 01:54 | -33.96929 | 151.26821 | 308 ft | 113 kts | 199° |
| 2026-04-25 01:54 | -33.97658 | 151.26468 | 311 ft | 113 kts | 199° |
| 2026-04-25 01:54 | -33.98394 | 151.26124 | 312 ft | 113 kts | 200° |
| 2026-04-25 01:55 | -33.99111 | 151.25761 | 323 ft | 113 kts | 201° |
| 2026-04-25 01:55 | -33.99834 | 151.25414 | 339 ft | 111 kts | 201° |
| 2026-04-25 01:55 | -34.00530 | 151.25012 | 363 ft | 110 kts | 206° |
| 2026-04-25 01:55 | -34.00925 | 151.24738 | 378 ft | 110 kts | 211° |
| 2026-04-25 01:59 | -34.01427 | 151.24327 | 433 ft | 109 kts | 214° |
| 2026-04-25 02:00 | -34.02057 | 151.23822 | 479 ft | 111 kts | 213° |
| 2026-04-25 02:00 | -34.02226 | 151.23685 | 475 ft | 113 kts | 212° |
| 2026-04-25 02:02 | -34.02845 | 151.23155 | 479 ft | 115 kts | 214° |
| 2026-04-25 02:02 | -34.03525 | 151.22644 | 481 ft | 113 kts | 213° |
| 2026-04-25 02:02 | -34.03699 | 151.22505 | 476 ft | 114 kts | 212° |
| 2026-04-25 02:02 | -34.04246 | 151.22060 | 514 ft | 109 kts | 216° |
| 2026-04-25 02:03 | -34.04492 | 151.21228 | 276 ft | 113 kts | 277° |
| 2026-04-25 02:03 | -34.04314 | 151.20319 | 256 ft | 111 kts | 290° |
| 2026-04-25 02:03 | -34.03916 | 151.19533 | 237 ft | 110 kts | 310° |
| 2026-04-25 02:03 | -34.03613 | 151.18713 | 259 ft | 109 kts | 271° |
| 2026-04-25 02:04 | -34.03762 | 151.17815 | 262 ft | 111 kts | 253° |
| 2026-04-25 02:04 | -34.04077 | 151.16951 | 244 ft | 115 kts | 240° |
| 2026-04-25 02:04 | -34.04597 | 151.16205 | 221 ft | 118 kts | 218° |
| 2026-04-25 02:04 | -34.05381 | 151.15964 | 204 ft | 119 kts | 170° |
| 2026-04-25 02:05 | -34.06168 | 151.16273 | 179 ft | 119 kts | 154° |
| 2026-04-25 02:05 | -34.06911 | 151.16691 | 198 ft | 116 kts | 150° |
| 2026-04-25 02:05 | -34.07643 | 151.17097 | 232 ft | 117 kts | 155° |
| 2026-04-25 02:05 | -34.08428 | 151.17363 | 221 ft | 117 kts | 174° |
| 2026-04-25 02:06 | -34.09202 | 151.17122 | 241 ft | 116 kts | 204° |
| 2026-04-25 02:06 | -34.09912 | 151.16658 | 236 ft | 115 kts | 211° |
| 2026-04-25 02:06 | -34.10573 | 151.16141 | 258 ft | 113 kts | 214° |
| 2026-04-25 02:06 | -34.11210 | 151.15579 | 273 ft | 114 kts | 218° |
| 2026-04-25 02:07 | -34.11839 | 151.14999 | 285 ft | 116 kts | 218° |
| 2026-04-25 02:07 | -34.12475 | 151.14392 | 277 ft | 117 kts | 217° |
| 2026-04-25 02:07 | -34.13100 | 151.13777 | 288 ft | 115 kts | 219° |
| 2026-04-25 02:07 | -34.13693 | 151.13140 | 286 ft | 114 kts | 223° |
| 2026-04-25 02:08 | -34.13861 | 151.12933 | 296 ft | 113 kts | 226° |
| 2026-04-25 02:20 | -34.14141 | 151.12540 | 287 ft | 113 kts | 233° |
| 2026-04-25 02:20 | -34.14633 | 151.11786 | 275 ft | 116 kts | 232° |
| 2026-04-25 02:21 | -34.15144 | 151.11034 | 240 ft | 117 kts | 224° |
| 2026-04-25 02:21 | -34.15348 | 151.10779 | 255 ft | 115 kts | 225° |
| 2026-04-25 02:22 | -34.15670 | 151.10360 | 304 ft | 113 kts | 230° |
| 2026-04-25 02:22 | -34.16177 | 151.09649 | 341 ft | 112 kts | 230° |
| 2026-04-25 02:22 | -34.16672 | 151.08914 | 352 ft | 114 kts | 233° |
| 2026-04-25 02:22 | -34.17168 | 151.08147 | 349 ft | 117 kts | 230° |
| 2026-04-25 02:23 | -34.17667 | 151.07377 | 365 ft | 117 kts | 233° |
| 2026-04-25 02:23 | -34.18152 | 151.06584 | 372 ft | 117 kts | 232° |
| 2026-04-25 02:23 | -34.18658 | 151.05825 | 368 ft | 114 kts | 232° |
| 2026-04-25 02:23 | -34.19147 | 151.05080 | 380 ft | 112 kts | 233° |
| 2026-04-25 02:24 | -34.19618 | 151.04350 | 401 ft | 111 kts | 230° |
| 2026-04-25 02:24 | -34.20138 | 151.03613 | 400 ft | 118 kts | 229° |
| 2026-04-25 02:24 | -34.20703 | 151.02882 | 422 ft | 119 kts | 224° |
| 2026-04-25 02:24 | -34.21310 | 151.02200 | 461 ft | 118 kts | 217° |
| 2026-04-25 02:25 | -34.21846 | 151.01725 | 444 ft | 115 kts | 217° |
| 2026-04-25 02:26 | -34.22425 | 151.01152 | 452 ft | 117 kts | 221° |
| 2026-04-25 02:26 | -34.23043 | 151.00511 | 479 ft | 116 kts | 219° |
| 2026-04-25 02:27 | -34.23660 | 150.99877 | 525 ft | 118 kts | 218° |
| 2026-04-25 02:27 | -34.24282 | 150.99255 | 563 ft | 114 kts | 218° |
| 2026-04-25 02:27 | -34.24900 | 150.98648 | 595 ft | 116 kts | 218° |
| 2026-04-25 02:27 | -34.25543 | 150.98033 | 536 ft | 120 kts | 218° |
| 2026-04-25 02:28 | -34.26229 | 150.97438 | 511 ft | 122 kts | 215° |
| 2026-04-25 02:28 | -34.26932 | 150.96908 | 560 ft | 118 kts | 209° |
| 2026-04-25 02:28 | -34.27652 | 150.96417 | 535 ft | 117 kts | 208° |
| 2026-04-25 02:28 | -34.28357 | 150.95916 | 514 ft | 116 kts | 208° |
| 2026-04-25 02:29 | -34.29063 | 150.95469 | 535 ft | 113 kts | 207° |
| 2026-04-25 02:29 | -34.29775 | 150.95035 | 514 ft | 119 kts | 203° |
| 2026-04-25 02:29 | -34.30536 | 150.94639 | 550 ft | 119 kts | 200° |
| 2026-04-25 02:29 | -34.31329 | 150.94382 | 578 ft | 115 kts | 191° |
| 2026-04-25 02:30 | -34.31939 | 150.94275 | 558 ft | 117 kts | 181° |
| 2026-04-25 02:31 | -34.31980 | 150.94271 | 560 ft | 117 kts | 181° |
| 2026-04-25 02:31 | -34.32766 | 150.94113 | 590 ft | 116 kts | 190° |
| 2026-04-25 02:31 | -34.33557 | 150.93860 | 632 ft | 120 kts | 193° |
| 2026-04-25 02:32 | -34.34365 | 150.93605 | 628 ft | 120 kts | 191° |
| 2026-04-25 02:32 | -34.35160 | 150.93422 | 701 ft | 112 kts | 188° |
| 2026-04-25 02:32 | -34.35958 | 150.93301 | 642 ft | 120 kts | 178° |
| 2026-04-25 02:32 | -34.36802 | 150.93278 | 601 ft | 124 kts | 179° |
| 2026-04-25 02:33 | -34.37660 | 150.93201 | 623 ft | 122 kts | 177° |
| 2026-04-25 02:33 | -34.38472 | 150.93151 | 678 ft | 117 kts | 180° |
| 2026-04-25 02:33 | -34.39272 | 150.93069 | 740 ft | 115 kts | 182° |
| 2026-04-25 02:33 | -34.40077 | 150.92957 | 749 ft | 117 kts | 182° |
| 2026-04-25 02:34 | -34.40330 | 150.92926 | 768 ft | 116 kts | 184° |
| 2026-04-25 02:34 | -34.40576 | 150.92887 | 762 ft | 118 kts | 186° |
| 2026-04-25 02:35 | -34.41397 | 150.92712 | 753 ft | 121 kts | 186° |
| 2026-04-25 02:35 | -34.42228 | 150.92530 | 764 ft | 122 kts | 186° |
| 2026-04-25 02:35 | -34.43073 | 150.92370 | 745 ft | 122 kts | 184° |
| 2026-04-25 02:35 | -34.43908 | 150.92254 | 749 ft | 119 kts | 182° |
| 2026-04-25 02:36 | -34.44736 | 150.92192 | 723 ft | 121 kts | 177° |
| 2026-04-25 02:36 | -34.45583 | 150.92170 | 720 ft | 123 kts | 174° |
| 2026-04-25 02:36 | -34.45861 | 150.92179 | 716 ft | 123 kts | 173° |
| 2026-04-25 02:37 | -34.46559 | 150.92193 | 702 ft | 121 kts | 172° |
| 2026-04-25 02:37 | -34.47397 | 150.92210 | 683 ft | 120 kts | 173° |
| 2026-04-25 02:37 | -34.47478 | 150.92212 | 685 ft | 120 kts | 173° |
| 2026-04-25 02:37 | -34.47982 | 150.92208 | 699 ft | 120 kts | 176° |
| 2026-04-25 02:38 | -34.48814 | 150.92152 | 694 ft | 120 kts | 179° |
| 2026-04-25 02:38 | -34.49573 | 150.91775 | 683 ft | 125 kts | 221° |
| 2026-04-25 02:38 | -34.50148 | 150.90996 | 681 ft | 125 kts | 227° |
| 2026-04-25 02:38 | -34.50748 | 150.90227 | 685 ft | 124 kts | 222° |
| 2026-04-25 02:39 | -34.51386 | 150.89517 | 685 ft | 123 kts | 218° |
| 2026-04-25 02:39 | -34.52014 | 150.88804 | 650 ft | 126 kts | 224° |
| 2026-04-25 02:39 | -34.52381 | 150.87884 | 659 ft | 120 kts | 261° |
| 2026-04-25 02:39 | -34.52408 | 150.87666 | 665 ft | 121 kts | 262° |
| 2026-04-25 02:40 | -34.52475 | 150.86884 | 680 ft | 122 kts | 266° |
| 2026-04-25 02:40 | -34.52525 | 150.85836 | 478 ft | 132 kts | 261° |
| 2026-04-25 02:40 | -34.52611 | 150.85148 | 472 ft | 127 kts | 261° |
| 2026-04-25 02:40 | -34.52775 | 150.84152 | 496 ft | 123 kts | 256° |
| 2026-04-25 02:41 | -34.53087 | 150.83207 | 561 ft | 120 kts | 244° |
| 2026-04-25 02:41 | -34.53472 | 150.82321 | 594 ft | 121 kts | 244° |
| 2026-04-25 02:41 | -34.53798 | 150.81380 | 555 ft | 122 kts | 246° |
| 2026-04-25 02:41 | -34.54151 | 150.80423 | 527 ft | 125 kts | 245° |
| 2026-04-25 02:42 | -34.54476 | 150.79458 | 499 ft | 120 kts | 244° |
| 2026-04-25 02:42 | -34.54857 | 150.78682 | 386 ft | 99 kts | 215° |
| 2026-04-25 02:42 | -34.55412 | 150.78591 | 123 ft | 66 kts | 160° |
| 2026-04-25 02:42 | -34.55703 | 150.78651 | 51 ft | 27 kts | 167° |
| 2026-04-25 02:43 | -34.55852 | 150.78701 | 43 ft | 12 kts | 109° |
| 2026-04-25 02:43 | -34.55860 | 150.78768 | 49 ft | 13 kts | 77° |
| 2026-04-25 02:43 | -34.55860 | 150.78791 | 49 ft | 2 kts | 68° |
| 2026-04-25 02:43 | -34.55857 | 150.78795 | 47 ft | 1 kts | 79° |
| 2026-04-25 02:45 | -34.55854 | 150.78816 | 52 ft | 9 kts | 139° |
| 2026-04-25 02:45 | -34.55952 | 150.78843 | 49 ft | 15 kts | 166° |
| 2026-04-25 02:45 | -34.56068 | 150.78869 | 52 ft | 17 kts | 169° |
| 2026-04-25 02:45 | -34.56129 | 150.78890 | 45 ft | 5 kts | 114° |
| 2026-04-25 02:46 | -34.56129 | 150.78931 | 47 ft | 2 kts | 50° |
| 2026-04-25 02:46 | -34.56117 | 150.78944 | 39 ft | 2 kts | 59° |
| 2026-04-25 02:46 | -34.56114 | 150.78949 | 35 ft | 0 kts | 49° |